Allendale, Michigan
Current Conditions -  °F | °C
As of 8:24 AM on Thursday 27 Nov 2014 (Local Time) from KBIV Reporting Station
Moderate Snow Moderate Snow  
Wind Chill: 29°   Ceiling: 1600
Heat Index: 29°   Visibility: 0.5mi
Dew Point: 26°   Wind: 0mph
Humidity: 89%   Direction: NA
Pressure: 30.19"   Gusts: NA
Location:  42.97°N, 85.95°W
Report Text: KBIV 271324Z AUTO 00000KT 1/2SM SN FZFG FEW009 OVC016 M02/M03 A3019 RMK AO2 P0001 T10171033
Loading
Personal Weather Stations






























Interactive Weather Map New forecast layout! Learn more

10-Day Weather Forecast

Advertisements
Track Severe Weather on mobile